sensor_id;sensor_type;location;lat;lon;timestamp;pressure;altitude;pressure_sealevel;temperature;humidity
34931;BME280;21134;49.646;8.560;2023-02-28T00:01:23;101509.81;;;0.08;66.14
34931;BME280;21134;49.646;8.560;2023-02-28T00:03:50;101506.88;;;0.01;66.80
34931;BME280;21134;49.646;8.560;2023-02-28T00:06:17;101507.81;;;0.03;66.69
34931;BME280;21134;49.646;8.560;2023-02-28T00:08:44;101509.28;;;-0.01;67.17
34931;BME280;21134;49.646;8.560;2023-02-28T00:11:12;101510.44;;;0.04;67.46
34931;BME280;21134;49.646;8.560;2023-02-28T00:13:41;101506.34;;;0.21;66.55
34931;BME280;21134;49.646;8.560;2023-02-28T00:16:11;101500.72;;;0.10;67.31
34931;BME280;21134;49.646;8.560;2023-02-28T00:18:38;101504.00;;;0.09;67.54
34931;BME280;21134;49.646;8.560;2023-02-28T00:21:05;101513.00;;;0.06;67.66
34931;BME280;21134;49.646;8.560;2023-02-28T00:23:33;101499.75;;;0.08;67.58
34931;BME280;21134;49.646;8.560;2023-02-28T00:26:01;101511.03;;;0.00;68.03
34931;BME280;21134;49.646;8.560;2023-02-28T00:28:28;101514.91;;;-0.05;68.30
34931;BME280;21134;49.646;8.560;2023-02-28T00:30:54;101507.44;;;-0.04;68.03
34931;BME280;21134;49.646;8.560;2023-02-28T00:33:22;101520.03;;;-0.18;68.88
34931;BME280;21134;49.646;8.560;2023-02-28T00:35:48;101517.22;;;-0.23;68.60
34931;BME280;21134;49.646;8.560;2023-02-28T00:38:15;101511.00;;;-0.15;69.01
34931;BME280;21134;49.646;8.560;2023-02-28T00:40:42;101510.75;;;-0.05;68.85
34931;BME280;21134;49.646;8.560;2023-02-28T00:43:10;101505.78;;;-0.18;68.93
34931;BME280;21134;49.646;8.560;2023-02-28T00:45:36;101509.34;;;-0.14;68.55
34931;BME280;21134;49.646;8.560;2023-02-28T00:48:03;101517.69;;;-0.15;68.79
34931;BME280;21134;49.646;8.560;2023-02-28T00:50:30;101510.81;;;-0.18;69.47
34931;BME280;21134;49.646;8.560;2023-02-28T00:52:56;101515.50;;;-0.24;69.63
34931;BME280;21134;49.646;8.560;2023-02-28T00:55:23;101514.19;;;-0.17;69.13
34931;BME280;21134;49.646;8.560;2023-02-28T00:57:49;101506.41;;;-0.22;69.91
34931;BME280;21134;49.646;8.560;2023-02-28T01:00:18;101502.81;;;-0.26;69.48
34931;BME280;21134;49.646;8.560;2023-02-28T01:02:44;101509.78;;;-0.21;69.66
34931;BME280;21134;49.646;8.560;2023-02-28T01:05:11;101518.66;;;-0.41;70.28
34931;BME280;21134;49.646;8.560;2023-02-28T01:07:37;101514.03;;;-0.49;70.46
34931;BME280;21134;49.646;8.560;2023-02-28T01:10:05;101511.97;;;-0.41;70.33
34931;BME280;21134;49.646;8.560;2023-02-28T01:12:31;101511.97;;;-0.41;70.43
34931;BME280;21134;49.646;8.560;2023-02-28T01:14:58;101510.16;;;-0.43;70.98
34931;BME280;21134;49.646;8.560;2023-02-28T01:17:25;101505.91;;;-0.44;71.25
34931;BME280;21134;49.646;8.560;2023-02-28T01:19:53;101509.97;;;-0.47;71.21
34931;BME280;21134;49.646;8.560;2023-02-28T01:22:19;101506.03;;;-0.56;71.73
34931;BME280;21134;49.646;8.560;2023-02-28T01:24:46;101495.97;;;-0.56;71.22
34931;BME280;21134;49.646;8.560;2023-02-28T01:27:13;101507.34;;;-0.48;71.58
34931;BME280;21134;49.646;8.560;2023-02-28T01:29:39;101498.75;;;-0.52;71.36
34931;BME280;21134;49.646;8.560;2023-02-28T01:32:06;101493.34;;;-0.58;71.57
34931;BME280;21134;49.646;8.560;2023-02-28T01:34:34;101497.16;;;-0.64;72.51
34931;BME280;21134;49.646;8.560;2023-02-28T01:37:00;101491.56;;;-0.74;71.62
34931;BME280;21134;49.646;8.560;2023-02-28T01:39:26;101495.34;;;-0.67;72.01
34931;BME280;21134;49.646;8.560;2023-02-28T01:41:53;101490.09;;;-0.57;71.75
34931;BME280;21134;49.646;8.560;2023-02-28T01:44:58;101492.97;;;-0.51;72.36
34931;BME280;21134;49.646;8.560;2023-02-28T01:47:27;101486.84;;;-0.69;72.26
34931;BME280;21134;49.646;8.560;2023-02-28T01:49:57;101490.03;;;-0.72;72.27
34931;BME280;21134;49.646;8.560;2023-02-28T01:52:24;101489.03;;;-0.60;72.53
34931;BME280;21134;49.646;8.560;2023-02-28T01:54:54;101484.31;;;-0.69;72.08
34931;BME280;21134;49.646;8.560;2023-02-28T01:57:24;101478.44;;;-0.69;71.97
34931;BME280;21134;49.646;8.560;2023-02-28T01:59:57;101473.97;;;-0.74;72.42
34931;BME280;21134;49.646;8.560;2023-02-28T02:02:27;101481.81;;;-0.69;72.74
34931;BME280;21134;49.646;8.560;2023-02-28T02:04:58;101473.22;;;-0.73;72.94
34931;BME280;21134;49.646;8.560;2023-02-28T02:07:30;101473.34;;;-0.56;72.00
34931;BME280;21134;49.646;8.560;2023-02-28T02:10:03;101474.63;;;-0.63;72.26
34931;BME280;21134;49.646;8.560;2023-02-28T02:12:42;101467.41;;;-0.72;72.61
34931;BME280;21134;49.646;8.560;2023-02-28T02:15:14;101469.72;;;-0.75;72.84
34931;BME280;21134;49.646;8.560;2023-02-28T02:17:44;101469.44;;;-0.66;72.83
34931;BME280;21134;49.646;8.560;2023-02-28T02:20:32;101468.81;;;-0.62;72.43
34931;BME280;21134;49.646;8.560;2023-02-28T02:26:18;101459.63;;;-0.61;72.39
34931;BME280;21134;49.646;8.560;2023-02-28T02:29:03;101458.97;;;-0.59;72.56
34931;BME280;21134;49.646;8.560;2023-02-28T02:31:51;101453.00;;;-0.46;72.27
34931;BME280;21134;49.646;8.560;2023-02-28T02:34:41;101454.66;;;-0.75;72.90
34931;BME280;21134;49.646;8.560;2023-02-28T02:37:14;101456.63;;;-0.84;73.67
34931;BME280;21134;49.646;8.560;2023-02-28T02:39:48;101461.56;;;-0.85;73.38
34931;BME280;21134;49.646;8.560;2023-02-28T02:42:23;101463.41;;;-0.83;73.64
34931;BME280;21134;49.646;8.560;2023-02-28T02:44:57;101465.81;;;-0.84;73.65
34931;BME280;21134;49.646;8.560;2023-02-28T02:47:26;101464.16;;;-0.84;73.73
34931;BME280;21134;49.646;8.560;2023-02-28T02:49:59;101460.78;;;-0.84;73.45
34931;BME280;21134;49.646;8.560;2023-02-28T02:52:31;101457.97;;;-0.76;73.46
34931;BME280;21134;49.646;8.560;2023-02-28T02:54:59;101461.69;;;-0.69;72.73
34931;BME280;21134;49.646;8.560;2023-02-28T02:57:32;101456.72;;;-0.82;72.83
34931;BME280;21134;49.646;8.560;2023-02-28T03:00:03;101461.19;;;-0.91;73.00
34931;BME280;21134;49.646;8.560;2023-02-28T03:02:31;101460.31;;;-0.92;73.70
34931;BME280;21134;49.646;8.560;2023-02-28T03:05:03;101465.75;;;-0.71;73.16
34931;BME280;21134;49.646;8.560;2023-02-28T03:07:31;101462.88;;;-0.77;73.26
34931;BME280;21134;49.646;8.560;2023-02-28T03:09:57;101456.19;;;-0.77;72.99
34931;BME280;21134;49.646;8.560;2023-02-28T03:12:39;101458.25;;;-0.84;73.25
34931;BME280;21134;49.646;8.560;2023-02-28T03:15:11;101464.00;;;-1.00;73.62
34931;BME280;21134;49.646;8.560;2023-02-28T03:17:58;101457.31;;;-1.00;73.74
34931;BME280;21134;49.646;8.560;2023-02-28T03:20:36;101458.63;;;-0.78;72.80
34931;BME280;21134;49.646;8.560;2023-02-28T03:23:13;101450.13;;;-0.80;72.92
34931;BME280;21134;49.646;8.560;2023-02-28T03:25:49;101453.47;;;-0.95;73.82
34931;BME280;21134;49.646;8.560;2023-02-28T03:28:24;101450.34;;;-0.90;73.81
34931;BME280;21134;49.646;8.560;2023-02-28T03:30:59;101456.88;;;-0.66;72.37
34931;BME280;21134;49.646;8.560;2023-02-28T03:33:32;101451.34;;;-0.74;72.55
34931;BME280;21134;49.646;8.560;2023-02-28T03:36:04;101447.84;;;-0.90;73.16
34931;BME280;21134;49.646;8.560;2023-02-28T03:38:35;101454.06;;;-0.99;74.22
34931;BME280;21134;49.646;8.560;2023-02-28T03:41:07;101450.53;;;-0.87;73.78
34931;BME280;21134;49.646;8.560;2023-02-28T03:43:40;101446.91;;;-0.92;73.65
34931;BME280;21134;49.646;8.560;2023-02-28T03:46:10;101450.84;;;-0.96;73.66
34931;BME280;21134;49.646;8.560;2023-02-28T03:48:42;101455.97;;;-0.95;73.74
34931;BME280;21134;49.646;8.560;2023-02-28T03:51:15;101447.38;;;-0.98;73.15
34931;BME280;21134;49.646;8.560;2023-02-28T03:53:45;101451.44;;;-1.00;73.46
34931;BME280;21134;49.646;8.560;2023-02-28T03:56:17;101451.56;;;-0.99;73.75
34931;BME280;21134;49.646;8.560;2023-02-28T03:58:49;101453.09;;;-1.01;73.89
34931;BME280;21134;49.646;8.560;2023-02-28T04:01:21;101449.88;;;-0.85;73.30
34931;BME280;21134;49.646;8.560;2023-02-28T04:03:50;101448.22;;;-0.84;73.02
34931;BME280;21134;49.646;8.560;2023-02-28T04:06:19;101449.97;;;-0.97;74.04
34931;BME280;21134;49.646;8.560;2023-02-28T04:08:47;101449.50;;;-0.91;73.49
34931;BME280;21134;49.646;8.560;2023-02-28T04:11:19;101448.44;;;-0.95;73.79
34931;BME280;21134;49.646;8.560;2023-02-28T04:13:46;101454.31;;;-0.94;73.78
34931;BME280;21134;49.646;8.560;2023-02-28T04:16:13;101459.94;;;-0.98;74.01
34931;BME280;21134;49.646;8.560;2023-02-28T04:18:40;101457.06;;;-1.04;74.62
34931;BME280;21134;49.646;8.560;2023-02-28T04:21:09;101460.88;;;-0.96;74.35
34931;BME280;21134;49.646;8.560;2023-02-28T04:23:37;101460.00;;;-0.83;73.45
34931;BME280;21134;49.646;8.560;2023-02-28T04:26:04;101451.03;;;-0.80;73.24
34931;BME280;21134;49.646;8.560;2023-02-28T04:28:31;101454.75;;;-1.01;73.50
34931;BME280;21134;49.646;8.560;2023-02-28T04:30:59;101453.69;;;-1.05;73.92
34931;BME280;21134;49.646;8.560;2023-02-28T04:33:26;101452.72;;;-1.07;74.74
34931;BME280;21134;49.646;8.560;2023-02-28T04:35:58;101456.31;;;-1.17;74.92
34931;BME280;21134;49.646;8.560;2023-02-28T04:38:25;101452.25;;;-1.14;75.29
34931;BME280;21134;49.646;8.560;2023-02-28T04:40:53;101455.50;;;-1.15;74.83
34931;BME280;21134;49.646;8.560;2023-02-28T04:43:20;101456.38;;;-1.15;75.34
34931;BME280;21134;49.646;8.560;2023-02-28T04:45:46;101452.75;;;-1.20;74.88
34931;BME280;21134;49.646;8.560;2023-02-28T04:48:12;101446.53;;;-1.12;75.39
34931;BME280;21134;49.646;8.560;2023-02-28T04:50:39;101456.56;;;-1.12;74.51
34931;BME280;21134;49.646;8.560;2023-02-28T04:53:05;101448.19;;;-1.26;75.04
34931;BME280;21134;49.646;8.560;2023-02-28T04:55:32;101449.56;;;-1.31;76.18
34931;BME280;21134;49.646;8.560;2023-02-28T04:58:00;101455.16;;;-1.35;76.15
34931;BME280;21134;49.646;8.560;2023-02-28T05:00:26;101454.69;;;-1.43;76.25
34931;BME280;21134;49.646;8.560;2023-02-28T05:02:53;101463.47;;;-1.36;76.45
34931;BME280;21134;49.646;8.560;2023-02-28T05:05:19;101467.59;;;-1.10;75.52
34931;BME280;21134;49.646;8.560;2023-02-28T05:07:46;101464.69;;;-1.16;75.46
34931;BME280;21134;49.646;8.560;2023-02-28T05:10:12;101460.94;;;-1.23;75.91
34931;BME280;21134;49.646;8.560;2023-02-28T05:12:39;101462.88;;;-1.32;76.51
34931;BME280;21134;49.646;8.560;2023-02-28T05:15:08;101465.06;;;-1.10;74.85
34931;BME280;21134;49.646;8.560;2023-02-28T05:17:38;101470.47;;;-1.04;74.80
34931;BME280;21134;49.646;8.560;2023-02-28T05:20:06;101466.63;;;-1.12;74.94
34931;BME280;21134;49.646;8.560;2023-02-28T05:22:34;101465.78;;;-1.26;75.65
34931;BME280;21134;49.646;8.560;2023-02-28T05:25:00;101475.44;;;-1.32;75.84
34931;BME280;21134;49.646;8.560;2023-02-28T05:27:26;101473.31;;;-1.26;76.41
34931;BME280;21134;49.646;8.560;2023-02-28T05:29:54;101469.44;;;-1.21;75.12
34931;BME280;21134;49.646;8.560;2023-02-28T05:32:22;101466.16;;;-1.20;75.35
34931;BME280;21134;49.646;8.560;2023-02-28T05:34:48;101474.94;;;-1.26;75.34
34931;BME280;21134;49.646;8.560;2023-02-28T05:37:15;101479.56;;;-1.19;75.32
34931;BME280;21134;49.646;8.560;2023-02-28T05:39:42;101478.50;;;-1.23;75.32
34931;BME280;21134;49.646;8.560;2023-02-28T05:42:08;101473.59;;;-1.34;76.31
34931;BME280;21134;49.646;8.560;2023-02-28T05:44:35;101478.31;;;-1.26;76.82
34931;BME280;21134;49.646;8.560;2023-02-28T05:47:02;101477.72;;;-1.22;75.76
34931;BME280;21134;49.646;8.560;2023-02-28T05:49:30;101481.31;;;-1.18;75.51
34931;BME280;21134;49.646;8.560;2023-02-28T05:51:57;101486.03;;;-1.23;75.13
34931;BME280;21134;49.646;8.560;2023-02-28T05:54:23;101481.63;;;-1.27;75.91
34931;BME280;21134;49.646;8.560;2023-02-28T05:56:49;101479.84;;;-1.28;75.63
34931;BME280;21134;49.646;8.560;2023-02-28T05:59:16;101479.75;;;-1.16;75.74
34931;BME280;21134;49.646;8.560;2023-02-28T06:01:44;101485.97;;;-1.24;75.81
34931;BME280;21134;49.646;8.560;2023-02-28T06:04:14;101478.91;;;-1.17;76.08
34931;BME280;21134;49.646;8.560;2023-02-28T06:06:44;101484.22;;;-1.25;75.32
34931;BME280;21134;49.646;8.560;2023-02-28T06:09:11;101494.94;;;-1.14;74.95
34931;BME280;21134;49.646;8.560;2023-02-28T06:11:37;101491.19;;;-1.21;75.27
34931;BME280;21134;49.646;8.560;2023-02-28T06:14:04;101489.81;;;-1.16;74.74
34931;BME280;21134;49.646;8.560;2023-02-28T06:16:33;101494.44;;;-1.22;75.72
34931;BME280;21134;49.646;8.560;2023-02-28T06:19:01;101494.63;;;-1.06;74.89
34931;BME280;21134;49.646;8.560;2023-02-28T06:21:29;101494.63;;;-1.06;75.13
34931;BME280;21134;49.646;8.560;2023-02-28T06:23:57;101496.44;;;-0.90;73.42
34931;BME280;21134;49.646;8.560;2023-02-28T06:26:24;101493.53;;;-0.96;73.90
34931;BME280;21134;49.646;8.560;2023-02-28T06:28:51;101492.69;;;-1.10;74.82
34931;BME280;21134;49.646;8.560;2023-02-28T06:31:18;101494.63;;;-1.19;74.26
34931;BME280;21134;49.646;8.560;2023-02-28T06:33:45;101490.78;;;-1.14;74.55
34931;BME280;21134;49.646;8.560;2023-02-28T06:36:13;101500.72;;;-1.15;74.24
34931;BME280;21134;49.646;8.560;2023-02-28T06:38:40;101497.94;;;-1.20;74.61
34931;BME280;21134;49.646;8.560;2023-02-28T06:41:08;101500.41;;;-0.94;73.66
34931;BME280;21134;49.646;8.560;2023-02-28T06:43:37;101503.06;;;-1.05;73.56
34931;BME280;21134;49.646;8.560;2023-02-28T06:46:06;101504.47;;;-1.09;74.08
34931;BME280;21134;49.646;8.560;2023-02-28T06:48:33;101503.22;;;-0.89;73.27
34931;BME280;21134;49.646;8.560;2023-02-28T06:51:04;101499.50;;;-0.81;73.46
34931;BME280;21134;49.646;8.560;2023-02-28T06:53:31;101498.25;;;-0.74;72.81
34931;BME280;21134;49.646;8.560;2023-02-28T06:55:58;101499.03;;;-0.75;72.10
34931;BME280;21134;49.646;8.560;2023-02-28T06:58:26;101510.41;;;-0.67;72.72
34931;BME280;21134;49.646;8.560;2023-02-28T07:00:53;101509.16;;;-0.74;73.09
34931;BME280;21134;49.646;8.560;2023-02-28T07:03:19;101513.41;;;-0.73;72.67
34931;BME280;21134;49.646;8.560;2023-02-28T07:05:46;101521.56;;;-0.49;71.31
34931;BME280;21134;49.646;8.560;2023-02-28T07:08:12;101528.78;;;-0.40;71.45
34931;BME280;21134;49.646;8.560;2023-02-28T07:10:39;101521.81;;;-0.31;70.80
34931;BME280;21134;49.646;8.560;2023-02-28T07:13:07;101517.81;;;-0.27;70.82
34931;BME280;21134;49.646;8.560;2023-02-28T07:15:36;101532.66;;;-0.17;70.22
34931;BME280;21134;49.646;8.560;2023-02-28T07:18:02;101521.31;;;-0.10;69.87
34931;BME280;21134;49.646;8.560;2023-02-28T07:20:30;101536.41;;;-0.10;70.16
34931;BME280;21134;49.646;8.560;2023-02-28T07:22:56;101531.59;;;0.08;69.55
34931;BME280;21134;49.646;8.560;2023-02-28T07:25:23;101525.78;;;0.09;69.14
34931;BME280;21134;49.646;8.560;2023-02-28T07:27:50;101524.47;;;0.15;68.85
34931;BME280;21134;49.646;8.560;2023-02-28T07:30:18;101532.13;;;0.32;68.33
34931;BME280;21134;49.646;8.560;2023-02-28T07:32:46;101527.38;;;0.36;68.25
34931;BME280;21134;49.646;8.560;2023-02-28T07:35:13;101530.50;;;0.32;67.99
34931;BME280;21134;49.646;8.560;2023-02-28T07:37:40;101528.94;;;0.49;67.42
34931;BME280;21134;49.646;8.560;2023-02-28T07:40:09;101537.25;;;0.63;66.77
34931;BME280;21134;49.646;8.560;2023-02-28T07:42:38;101533.00;;;0.62;66.46
34931;BME280;21134;49.646;8.560;2023-02-28T07:45:05;101529.75;;;0.79;65.97
34931;BME280;21134;49.646;8.560;2023-02-28T07:47:32;101536.16;;;0.89;66.01
34931;BME280;21134;49.646;8.560;2023-02-28T07:50:00;101533.47;;;1.01;65.53
34931;BME280;21134;49.646;8.560;2023-02-28T07:52:26;101534.66;;;1.07;65.44
34931;BME280;21134;49.646;8.560;2023-02-28T07:54:53;101538.91;;;1.08;65.18
34931;BME280;21134;49.646;8.560;2023-02-28T07:57:19;101542.25;;;1.24;64.27
34931;BME280;21134;49.646;8.560;2023-02-28T07:59:46;101540.31;;;1.34;63.93
34931;BME280;21134;49.646;8.560;2023-02-28T08:02:14;101529.59;;;1.38;63.51
34931;BME280;21134;49.646;8.560;2023-02-28T08:04:40;101534.81;;;1.58;62.89
34931;BME280;21134;49.646;8.560;2023-02-28T08:07:08;101538.06;;;1.72;62.50
34931;BME280;21134;49.646;8.560;2023-02-28T08:09:38;101546.09;;;1.81;62.01
34931;BME280;21134;49.646;8.560;2023-02-28T08:12:05;101548.41;;;1.93;61.77
34931;BME280;21134;49.646;8.560;2023-02-28T08:14:32;101543.81;;;1.85;61.58
34931;BME280;21134;49.646;8.560;2023-02-28T08:17:00;101545.94;;;1.94;61.34
34931;BME280;21134;49.646;8.560;2023-02-28T08:19:26;101550.69;;;2.04;60.78
34931;BME280;21134;49.646;8.560;2023-02-28T08:21:53;101549.78;;;2.04;60.58
34931;BME280;21134;49.646;8.560;2023-02-28T08:24:21;101546.88;;;2.13;60.86
34931;BME280;21134;49.646;8.560;2023-02-28T08:26:47;101539.53;;;2.17;60.82
34931;BME280;21134;49.646;8.560;2023-02-28T08:29:14;101537.59;;;2.29;60.35
34931;BME280;21134;49.646;8.560;2023-02-28T08:31:40;101539.34;;;2.30;59.97
34931;BME280;21134;49.646;8.560;2023-02-28T08:34:07;101541.44;;;2.39;59.58
34931;BME280;21134;49.646;8.560;2023-02-28T08:36:35;101541.44;;;2.39;59.43
34931;BME280;21134;49.646;8.560;2023-02-28T08:39:01;101533.69;;;2.18;59.73
34931;BME280;21134;49.646;8.560;2023-02-28T08:41:30;101535.47;;;2.37;59.08
34931;BME280;21134;49.646;8.560;2023-02-28T08:43:56;101537.19;;;2.38;59.86
34931;BME280;21134;49.646;8.560;2023-02-28T08:46:23;101538.44;;;2.46;59.33
34931;BME280;21134;49.646;8.560;2023-02-28T08:48:51;101533.97;;;2.41;59.55
34931;BME280;21134;49.646;8.560;2023-02-28T08:51:19;101544.56;;;2.33;59.83
34931;BME280;21134;49.646;8.560;2023-02-28T08:53:51;101541.03;;;2.48;59.38
34931;BME280;21134;49.646;8.560;2023-02-28T08:56:18;101541.75;;;2.45;59.13
34931;BME280;21134;49.646;8.560;2023-02-28T08:58:48;101539.59;;;2.53;59.04
34931;BME280;21134;49.646;8.560;2023-02-28T09:01:17;101543.50;;;2.64;58.58
34931;BME280;21134;49.646;8.560;2023-02-28T09:03:44;101543.16;;;2.56;58.32
34931;BME280;21134;49.646;8.560;2023-02-28T09:06:13;101545.31;;;2.67;57.92
34931;BME280;21134;49.646;8.560;2023-02-28T09:08:40;101538.81;;;2.54;57.60
34931;BME280;21134;49.646;8.560;2023-02-28T09:11:07;101535.88;;;2.63;58.27
34931;BME280;21134;49.646;8.560;2023-02-28T09:13:35;101534.63;;;2.72;57.04
34931;BME280;21134;49.646;8.560;2023-02-28T09:16:04;101536.16;;;2.69;56.85
34931;BME280;21134;49.646;8.560;2023-02-28T09:18:33;101533.97;;;2.76;55.90
34931;BME280;21134;49.646;8.560;2023-02-28T09:21:02;101538.81;;;2.90;56.09
34931;BME280;21134;49.646;8.560;2023-02-28T09:23:30;101533.72;;;2.88;56.79
34931;BME280;21134;49.646;8.560;2023-02-28T09:25:56;101533.69;;;3.06;56.18
34931;BME280;21134;49.646;8.560;2023-02-28T09:28:22;101544.44;;;3.02;56.08
34931;BME280;21134;49.646;8.560;2023-02-28T09:30:51;101536.22;;;3.06;55.38
34931;BME280;21134;49.646;8.560;2023-02-28T09:33:19;101538.00;;;3.09;55.25
34931;BME280;21134;49.646;8.560;2023-02-28T09:35:46;101537.34;;;3.31;54.19
34931;BME280;21134;49.646;8.560;2023-02-28T09:38:13;101534.28;;;3.38;53.68
34931;BME280;21134;49.646;8.560;2023-02-28T09:40:47;101535.38;;;3.25;54.40
34931;BME280;21134;49.646;8.560;2023-02-28T09:43:16;101538.34;;;3.34;53.71
34931;BME280;21134;49.646;8.560;2023-02-28T09:45:48;101538.03;;;3.46;52.59
34931;BME280;21134;49.646;8.560;2023-02-28T09:48:20;101539.84;;;3.48;53.03
34931;BME280;21134;49.646;8.560;2023-02-28T09:50:49;101532.03;;;3.63;52.64
34931;BME280;21134;49.646;8.560;2023-02-28T09:53:21;101531.91;;;3.60;52.35
34931;BME280;21134;49.646;8.560;2023-02-28T09:55:51;101534.72;;;3.66;51.90
34931;BME280;21134;49.646;8.560;2023-02-28T09:58:26;101528.19;;;3.71;52.43
34931;BME280;21134;49.646;8.560;2023-02-28T10:00:59;101524.81;;;3.71;52.10
34931;BME280;21134;49.646;8.560;2023-02-28T10:03:31;101524.22;;;3.77;51.87
34931;BME280;21134;49.646;8.560;2023-02-28T10:06:04;101528.88;;;3.67;52.88
34931;BME280;21134;49.646;8.560;2023-02-28T10:08:37;101525.19;;;3.80;52.01
34931;BME280;21134;49.646;8.560;2023-02-28T10:11:09;101524.25;;;3.97;51.82
34931;BME280;21134;49.646;8.560;2023-02-28T10:13:45;101520.72;;;3.94;51.51
34931;BME280;21134;49.646;8.560;2023-02-28T10:16:18;101515.31;;;4.06;51.28
34931;BME280;21134;49.646;8.560;2023-02-28T10:18:51;101522.34;;;4.13;50.94
34931;BME280;21134;49.646;8.560;2023-02-28T10:21:26;101525.16;;;4.19;50.57
34931;BME280;21134;49.646;8.560;2023-02-28T10:24:01;101519.34;;;4.22;50.92
34931;BME280;21134;49.646;8.560;2023-02-28T10:26:30;101522.16;;;4.08;51.28
34931;BME280;21134;49.646;8.560;2023-02-28T10:28:57;101523.47;;;4.19;50.99
34931;BME280;21134;49.646;8.560;2023-02-28T10:31:24;101520.47;;;4.28;50.46
34931;BME280;21134;49.646;8.560;2023-02-28T10:33:51;101525.78;;;4.34;50.83
34931;BME280;21134;49.646;8.560;2023-02-28T10:36:20;101523.53;;;4.21;51.19
34931;BME280;21134;49.646;8.560;2023-02-28T10:38:47;101526.56;;;4.33;51.20
34931;BME280;21134;49.646;8.560;2023-02-28T10:41:15;101524.16;;;4.36;51.57
34931;BME280;21134;49.646;8.560;2023-02-28T10:43:43;101514.56;;;4.08;50.85
34931;BME280;21134;49.646;8.560;2023-02-28T10:46:15;101520.63;;;4.12;50.90
34931;BME280;21134;49.646;8.560;2023-02-28T10:49:01;101515.22;;;4.45;51.13
34931;BME280;21134;49.646;8.560;2023-02-28T10:51:35;101513.59;;;4.47;50.16
34931;BME280;21134;49.646;8.560;2023-02-28T10:54:02;101517.38;;;4.35;50.76
34931;BME280;21134;49.646;8.560;2023-02-28T10:56:30;101510.53;;;4.54;50.59
34931;BME280;21134;49.646;8.560;2023-02-28T10:59:00;101510.16;;;4.45;50.53
34931;BME280;21134;49.646;8.560;2023-02-28T11:01:35;101515.84;;;4.60;50.75
34931;BME280;21134;49.646;8.560;2023-02-28T11:04:03;101512.13;;;4.52;50.48
34931;BME280;21134;49.646;8.560;2023-02-28T11:06:42;101521.56;;;4.56;50.57
34931;BME280;21134;49.646;8.560;2023-02-28T11:09:20;101511.06;;;4.47;51.43
34931;BME280;21134;49.646;8.560;2023-02-28T11:11:49;101506.31;;;4.54;51.13
34931;BME280;21134;49.646;8.560;2023-02-28T11:14:20;101505.78;;;4.84;50.90
34931;BME280;21134;49.646;8.560;2023-02-28T11:16:48;101512.13;;;4.73;50.41
34931;BME280;21134;49.646;8.560;2023-02-28T11:19:19;101508.25;;;4.82;51.02
34931;BME280;21134;49.646;8.560;2023-02-28T11:21:52;101505.19;;;4.91;50.30
34931;BME280;21134;49.646;8.560;2023-02-28T11:24:23;101505.44;;;4.97;50.38
34931;BME280;21134;49.646;8.560;2023-02-28T11:26:50;101505.53;;;4.78;50.02
34931;BME280;21134;49.646;8.560;2023-02-28T11:29:19;101510.44;;;4.73;50.09
34931;BME280;21134;49.646;8.560;2023-02-28T11:32:13;101503.94;;;5.02;48.89
34931;BME280;21134;49.646;8.560;2023-02-28T11:34:44;101500.66;;;5.05;49.78
34931;BME280;21134;49.646;8.560;2023-02-28T11:37:13;101505.91;;;5.09;48.79
34931;BME280;21134;49.646;8.560;2023-02-28T11:39:41;101492.00;;;5.00;49.19
34931;BME280;21134;49.646;8.560;2023-02-28T11:42:18;101490.44;;;5.03;49.40
34931;BME280;21134;49.646;8.560;2023-02-28T11:44:58;101493.63;;;4.98;49.94
34931;BME280;21134;49.646;8.560;2023-02-28T11:47:33;101489.19;;;4.92;49.58
34931;BME280;21134;49.646;8.560;2023-02-28T11:50:16;101488.50;;;4.96;50.01
34931;BME280;21134;49.646;8.560;2023-02-28T11:52:52;101488.00;;;5.05;49.62
34931;BME280;21134;49.646;8.560;2023-02-28T11:55:23;101491.63;;;5.11;49.24
34931;BME280;21134;49.646;8.560;2023-02-28T11:58:07;101486.22;;;5.26;49.51
34931;BME280;21134;49.646;8.560;2023-02-28T12:01:01;101480.50;;;5.32;49.11
34931;BME280;21134;49.646;8.560;2023-02-28T12:03:39;101473.56;;;5.50;48.24
34931;BME280;21134;49.646;8.560;2023-02-28T12:06:17;101490.84;;;5.60;48.58
34931;BME280;21134;49.646;8.560;2023-02-28T12:08:51;101480.97;;;5.68;48.39
34931;BME280;21134;49.646;8.560;2023-02-28T12:11:30;101471.50;;;5.64;47.90
34931;BME280;21134;49.646;8.560;2023-02-28T12:14:15;101480.47;;;5.54;47.15
34931;BME280;21134;49.646;8.560;2023-02-28T12:16:50;101472.16;;;5.82;46.95
34931;BME280;21134;49.646;8.560;2023-02-28T12:19:25;101477.94;;;5.78;46.96
34931;BME280;21134;49.646;8.560;2023-02-28T12:22:09;101478.69;;;5.76;47.02
34931;BME280;21134;49.646;8.560;2023-02-28T12:24:58;101481.34;;;5.79;46.16
34931;BME280;21134;49.646;8.560;2023-02-28T12:27:30;101478.38;;;5.91;47.38
34931;BME280;21134;49.646;8.560;2023-02-28T12:30:00;101475.72;;;5.88;46.83
34931;BME280;21134;49.646;8.560;2023-02-28T12:32:32;101474.84;;;5.87;46.66
34931;BME280;21134;49.646;8.560;2023-02-28T12:35:04;101475.19;;;5.96;46.50
34931;BME280;21134;49.646;8.560;2023-02-28T12:37:38;101476.50;;;5.87;46.65
34931;BME280;21134;49.646;8.560;2023-02-28T12:40:11;101474.75;;;5.84;47.31
34931;BME280;21134;49.646;8.560;2023-02-28T12:42:40;101474.72;;;6.08;46.60
34931;BME280;21134;49.646;8.560;2023-02-28T12:45:13;101464.25;;;5.99;46.09
34931;BME280;21134;49.646;8.560;2023-02-28T12:47:45;101458.94;;;6.17;46.78
34931;BME280;21134;49.646;8.560;2023-02-28T12:50:15;101472.72;;;6.25;46.19
34931;BME280;21134;49.646;8.560;2023-02-28T12:52:48;101468.16;;;6.15;46.26
34931;BME280;21134;49.646;8.560;2023-02-28T12:55:21;101470.91;;;6.21;46.02
34931;BME280;21134;49.646;8.560;2023-02-28T12:57:58;101472.41;;;6.14;45.73
34931;BME280;21134;49.646;8.560;2023-02-28T13:00:33;101467.41;;;6.17;45.81
34931;BME280;21134;49.646;8.560;2023-02-28T13:03:20;101471.22;;;6.30;46.02
34931;BME280;21134;49.646;8.560;2023-02-28T13:06:21;101464.78;;;6.14;46.71
34931;BME280;21134;49.646;8.560;2023-02-28T13:09:03;101471.50;;;6.39;46.14
34931;BME280;21134;49.646;8.560;2023-02-28T13:11:32;101472.13;;;6.59;46.06
34931;BME280;21134;49.646;8.560;2023-02-28T13:14:01;101470.31;;;6.55;44.85